createdAt,value
2022-12-04T00:02:13.537Z,100312.16
2022-12-04T00:04:44.818Z,100306.33
2022-12-04T00:07:13.930Z,100310.13
2022-12-04T00:09:42.247Z,100316.13
2022-12-04T00:12:10.782Z,100320.44
2022-12-04T00:15:08.052Z,100316.33
2022-12-04T00:17:27.931Z,100317.02
2022-12-04T00:19:56.698Z,100314.27
2022-12-04T00:22:25.371Z,100311.35
2022-12-04T00:24:53.674Z,100310.33
2022-12-04T00:27:21.900Z,100311.04
2022-12-04T00:29:50.072Z,100314.15
2022-12-04T00:32:18.555Z,100316.90
2022-12-04T00:34:46.640Z,100314.82
2022-12-04T00:37:14.913Z,100310.69
2022-12-04T00:39:43.214Z,100305.02
2022-12-04T00:42:12.209Z,100303.98
2022-12-04T00:44:40.751Z,100302.44
2022-12-04T00:47:10.080Z,100300.22
2022-12-04T00:49:38.551Z,100295.58
2022-12-04T00:52:06.818Z,100301.10
2022-12-04T00:54:35.042Z,100300.40
2022-12-04T00:57:05.474Z,100300.91
2022-12-04T00:59:33.730Z,100302.63
2022-12-04T01:02:02.096Z,100302.64
2022-12-04T01:04:30.635Z,100300.73
2022-12-04T01:07:04.666Z,100299.02
2022-12-04T01:09:34.082Z,100296.42
2022-12-04T01:12:02.220Z,100300.54
2022-12-04T01:14:31.320Z,100301.06
2022-12-04T01:17:00.162Z,100301.25
2022-12-04T01:19:29.049Z,100297.64
2022-12-04T01:21:57.364Z,100298.50
2022-12-04T01:24:25.636Z,100296.26
2022-12-04T01:26:55.057Z,100295.40
2022-12-04T01:29:25.133Z,100287.48
2022-12-04T01:31:53.813Z,100286.29
2022-12-04T01:34:22.132Z,100285.60
2022-12-04T01:36:50.912Z,100280.95
2022-12-04T01:39:19.388Z,100281.81
2022-12-04T01:41:48.808Z,100280.77
2022-12-04T01:44:21.732Z,100283.73
2022-12-04T01:46:55.697Z,100287.52
2022-12-04T01:49:43.294Z,100288.55
2022-12-04T01:52:21.780Z,100287.34
2022-12-04T01:54:59.587Z,100284.40
2022-12-04T01:57:32.566Z,100286.46
2022-12-04T02:00:04.928Z,100287.67
2022-12-04T02:02:35.742Z,100284.05
2022-12-04T02:05:06.851Z,100280.77
2022-12-04T02:07:36.070Z,100282.50
2022-12-04T02:10:06.967Z,100279.73
2022-12-04T02:13:22.409Z,100276.66
2022-12-04T02:15:53.912Z,100275.29
2022-12-04T02:18:53.881Z,100274.59
2022-12-04T02:21:32.973Z,100275.11
2022-12-04T02:24:13.013Z,100276.32
2022-12-04T02:26:44.097Z,100275.96
2022-12-04T02:29:33.152Z,100275.63
2022-12-04T02:32:22.414Z,100273.74
2022-12-04T02:34:53.567Z,100269.63
2022-12-04T02:37:31.480Z,100263.94
2022-12-04T02:40:15.023Z,100265.48
2022-12-04T02:42:54.009Z,100260.13
2022-12-04T02:45:30.448Z,100259.95
2022-12-04T02:48:02.567Z,100256.50
2022-12-04T02:50:34.225Z,100255.13
2022-12-04T02:53:08.998Z,100254.79
2022-12-04T02:55:55.695Z,100258.92
2022-12-04T02:58:41.960Z,100259.45
2022-12-04T03:01:20.125Z,100253.09
2022-12-04T03:03:51.245Z,100253.42
2022-12-04T03:06:22.244Z,100253.77
2022-12-04T03:08:53.651Z,100251.87
2022-12-04T03:11:26.710Z,100248.60
2022-12-04T03:14:00.160Z,100245.50
2022-12-04T03:16:40.699Z,100242.25
2022-12-04T03:19:18.098Z,100241.55
2022-12-04T03:21:54.933Z,100236.73
2022-12-04T03:24:39.660Z,100239.30
2022-12-04T03:27:13.755Z,100238.80
2022-12-04T03:29:48.913Z,100235.52
2022-12-04T03:32:34.125Z,100235.86
2022-12-04T03:35:05.428Z,100228.98
2022-12-04T03:38:16.822Z,100223.83
2022-12-04T03:40:58.479Z,100220.21
2022-12-04T03:43:39.281Z,100219.17
2022-12-04T03:46:16.182Z,100217.64
2022-12-04T03:48:54.633Z,100220.40
2022-12-04T03:51:34.298Z,100219.89
2022-12-04T03:54:08.081Z,100228.50
2022-12-04T03:56:47.501Z,100217.81
2022-12-04T03:59:30.367Z,100221.27
2022-12-04T04:02:01.727Z,100220.06
2022-12-04T04:04:32.725Z,100218.17
2022-12-04T04:07:09.794Z,100215.59
2022-12-04T04:09:45.678Z,100219.39
2022-12-04T04:12:18.293Z,100215.78
2022-12-04T04:15:12.392Z,100218.90
2022-12-04T04:18:06.167Z,100213.55
2022-12-04T04:21:03.011Z,100214.94
2022-12-04T04:23:54.781Z,100217.88
2022-12-04T04:26:26.996Z,100224.09
2022-12-04T04:28:55.330Z,100220.83
2022-12-04T04:31:38.946Z,100219.64
2022-12-04T04:34:16.550Z,100225.66
2022-12-04T04:36:44.604Z,100231.19
2022-12-04T04:39:51.172Z,100232.75
2022-12-04T04:42:29.330Z,100230.33
2022-12-04T04:45:03.549Z,100232.77
2022-12-04T04:47:43.908Z,100233.80
2022-12-04T04:50:15.131Z,100230.71
2022-12-04T04:52:49.268Z,100233.11
2022-12-04T04:55:19.954Z,100235.17
2022-12-04T04:57:48.351Z,100232.08
2022-12-04T05:00:22.893Z,100233.13
2022-12-04T05:02:51.508Z,100241.06
2022-12-04T05:05:19.698Z,100244.00
2022-12-04T05:07:48.284Z,100241.77
2022-12-04T05:10:16.420Z,100236.94
2022-12-04T05:12:44.963Z,100231.25
2022-12-04T05:15:13.448Z,100229.34
2022-12-04T05:17:41.959Z,100228.14
2022-12-04T05:20:10.607Z,100229.69
2022-12-04T05:22:39.272Z,100227.11
2022-12-04T05:25:07.691Z,100224.17
2022-12-04T05:27:35.973Z,100221.23
2022-12-04T05:30:05.554Z,100221.59
2022-12-04T05:32:33.710Z,100217.62
2022-12-04T05:35:07.674Z,100218.14
2022-12-04T05:37:40.911Z,100212.64
2022-12-04T05:40:09.555Z,100211.45
2022-12-04T05:42:37.910Z,100213.17
2022-12-04T05:45:06.621Z,100215.05
2022-12-04T05:47:42.719Z,100213.33
2022-12-04T05:50:13.711Z,100204.02
2022-12-04T05:52:41.761Z,100202.30
2022-12-04T05:55:10.996Z,100201.42
2022-12-04T05:57:39.846Z,100198.34
2022-12-04T06:00:11.974Z,100200.25
2022-12-04T06:02:40.459Z,100203.70
2022-12-04T06:05:09.282Z,100202.15
2022-12-04T06:07:37.938Z,100200.08
2022-12-04T06:10:06.876Z,100200.42
2022-12-04T06:12:34.996Z,100209.05
2022-12-04T06:15:03.344Z,100211.14
2022-12-04T06:17:31.461Z,100203.36
2022-12-04T06:20:00.580Z,100205.09
2022-12-04T06:22:28.980Z,100203.02
2022-12-04T06:24:57.126Z,100201.81
2022-12-04T06:27:27.566Z,100203.56
2022-12-04T06:29:56.690Z,100207.00
2022-12-04T06:32:25.100Z,100212.02
2022-12-04T06:34:54.362Z,100214.61
2022-12-04T06:37:25.008Z,100217.21
2022-12-04T06:39:53.675Z,100224.63
2022-12-04T06:42:22.113Z,100229.64
2022-12-04T06:44:50.302Z,100228.26
2022-12-04T06:47:18.625Z,100221.71
2022-12-04T06:49:50.137Z,100221.36
2022-12-04T06:52:18.454Z,100221.52
2022-12-04T06:54:46.617Z,100221.54
2022-12-04T06:57:15.182Z,100228.63
2022-12-04T06:59:43.249Z,100235.19
2022-12-04T07:02:11.879Z,100237.09
2022-12-04T07:04:40.704Z,100234.51
2022-12-04T07:07:10.291Z,100236.08
2022-12-04T07:09:39.661Z,100230.55
2022-12-04T07:12:07.835Z,100223.29
2022-12-04T07:14:36.338Z,100219.50
2022-12-04T07:17:05.540Z,100219.84
2022-12-04T07:19:34.180Z,100218.98
2022-12-04T07:22:02.236Z,100223.13
2022-12-04T07:24:30.392Z,100219.50
2022-12-04T07:26:58.529Z,100214.15
2022-12-04T07:29:26.638Z,100213.30
2022-12-04T07:31:54.892Z,100210.89
2022-12-04T07:34:23.678Z,100212.23
2022-12-04T07:36:52.222Z,100210.52
2022-12-04T07:39:20.300Z,100205.54
2022-12-04T07:41:48.843Z,100207.61
2022-12-04T07:44:16.981Z,100209.66
2022-12-04T07:46:45.099Z,100211.57
2022-12-04T07:49:13.895Z,100212.27
2022-12-04T07:51:42.620Z,100212.27
2022-12-04T07:54:11.908Z,100210.90
2022-12-04T07:56:41.025Z,100210.38
2022-12-04T07:59:09.173Z,100206.06
2022-12-04T08:01:37.334Z,100212.11
2022-12-04T08:04:05.736Z,100213.48
2022-12-04T08:06:35.342Z,100215.05
2022-12-04T08:09:09.515Z,100217.65
2022-12-04T08:11:38.747Z,100211.95
2022-12-04T08:14:09.356Z,100208.52
2022-12-04T08:16:38.155Z,100212.84
2022-12-04T08:19:06.687Z,100220.62
2022-12-04T08:21:34.970Z,100221.65
2022-12-04T08:24:03.567Z,100214.75
2022-12-04T08:26:33.922Z,100212.69
2022-12-04T08:29:04.065Z,100213.02
2022-12-04T08:31:34.990Z,100212.36
2022-12-04T08:34:04.599Z,100210.11
2022-12-04T08:36:33.626Z,100212.19
2022-12-04T08:39:01.981Z,100215.31
2022-12-04T08:41:30.572Z,100213.92
2022-12-04T08:43:59.896Z,100215.47
2022-12-04T08:46:29.313Z,100221.70
2022-12-04T08:48:58.498Z,100226.52
2022-12-04T08:51:30.986Z,100226.71
2022-12-04T08:54:01.702Z,100226.70
2022-12-04T08:56:32.762Z,100226.20
2022-12-04T08:59:01.928Z,100217.39
2022-12-04T09:01:31.864Z,100220.67
2022-12-04T09:04:00.300Z,100224.98
2022-12-04T09:06:31.060Z,100225.85
2022-12-04T09:08:59.333Z,100224.64
2022-12-04T09:11:30.706Z,100220.67
2022-12-04T09:14:01.102Z,100220.84
2022-12-04T09:16:29.371Z,100222.40
2022-12-04T09:18:58.104Z,100221.17
2022-12-04T09:21:27.285Z,100224.29
2022-12-04T09:23:55.518Z,100224.98
2022-12-04T09:26:26.453Z,100223.77
2022-12-04T09:28:56.359Z,100224.97
2022-12-04T09:31:25.076Z,100223.59
2022-12-04T09:33:53.483Z,100219.10
2022-12-04T09:36:22.291Z,100218.56
2022-12-04T09:38:52.888Z,100215.11
2022-12-04T09:41:36.470Z,100211.30
2022-12-04T09:44:34.255Z,100211.81
2022-12-04T09:47:08.739Z,100204.88
2022-12-04T09:49:48.919Z,100206.77
2022-12-04T09:52:46.166Z,100202.62
2022-12-04T09:55:21.156Z,100199.84
2022-12-04T09:57:54.893Z,100198.62
2022-12-04T10:00:28.426Z,100194.80
2022-12-04T10:03:03.998Z,100200.17
2022-12-04T10:05:44.838Z,100198.96
2022-12-04T10:08:15.852Z,100191.34
2022-12-04T10:11:00.137Z,100183.20
2022-12-04T10:13:40.319Z,100181.77
2022-12-04T10:16:39.516Z,100172.39
2022-12-04T10:19:27.036Z,100166.29
2022-12-04T10:22:38.460Z,100165.74
2022-12-04T10:25:20.850Z,100167.97
2022-12-04T10:27:59.986Z,100174.20
2022-12-04T10:30:35.087Z,100179.91
2022-12-04T10:33:23.463Z,100177.98
2022-12-04T10:35:54.380Z,100176.45
2022-12-04T10:38:37.902Z,100174.90
2022-12-04T10:41:26.517Z,100175.25
2022-12-04T10:43:55.596Z,100180.27
2022-12-04T10:46:46.363Z,100174.04
2022-12-04T10:49:29.066Z,100180.09
2022-12-04T10:51:57.344Z,100174.55
2022-12-04T10:54:30.293Z,100168.99
2022-12-04T10:57:01.394Z,100167.25
2022-12-04T10:59:30.263Z,100168.80
2022-12-04T11:02:15.030Z,100174.33
2022-12-04T11:04:43.973Z,100169.78
2022-12-04T11:07:36.251Z,100167.85
2022-12-04T11:10:06.655Z,100163.13
2022-12-04T11:12:35.099Z,100165.31
2022-12-04T11:15:15.296Z,100168.08
2022-12-04T11:17:43.492Z,100167.70
2022-12-04T11:20:19.608Z,100161.76
2022-12-04T11:22:52.384Z,100163.64
2022-12-04T11:25:23.267Z,100159.29
2022-12-04T11:27:55.829Z,100155.95
2022-12-04T11:30:34.062Z,100153.30
2022-12-04T11:33:04.801Z,100152.92
2022-12-04T11:35:33.233Z,100154.80
2022-12-04T11:38:16.144Z,100151.34
2022-12-04T11:40:53.211Z,100150.14
2022-12-04T11:43:25.113Z,100152.17
2022-12-04T11:46:07.113Z,100147.45
2022-12-04T11:48:44.862Z,100147.28
2022-12-04T11:51:41.658Z,100145.55
2022-12-04T11:54:17.604Z,100139.25
2022-12-04T11:56:52.117Z,100134.52
2022-12-04T11:59:58.664Z,100133.91
2022-12-04T12:02:46.882Z,100127.92
2022-12-04T12:05:24.747Z,100121.63
2022-12-04T12:08:15.582Z,100120.52
2022-12-04T12:10:51.624Z,100125.55
2022-12-04T12:13:51.429Z,100127.60
2022-12-04T12:16:48.447Z,100117.54
2022-12-04T12:19:32.614Z,100122.27
2022-12-04T12:22:07.669Z,100126.01
2022-12-04T12:24:40.145Z,100127.42
2022-12-04T12:27:30.610Z,100117.95
2022-12-04T12:30:16.398Z,100123.34
2022-12-04T12:33:03.964Z,100125.43
2022-12-04T12:35:43.456Z,100125.23
2022-12-04T12:38:18.661Z,100118.98
2022-12-04T12:41:02.026Z,100111.23
2022-12-04T12:43:33.700Z,100114.21
2022-12-04T12:46:16.739Z,100115.45
2022-12-04T12:49:11.464Z,100112.02
2022-12-04T12:51:54.232Z,100110.98
2022-12-04T12:55:00.303Z,100105.63
2022-12-04T12:57:40.027Z,100106.17
2022-12-04T13:00:21.343Z,100101.32
2022-12-04T13:02:53.756Z,100097.16
2022-12-04T13:05:30.539Z,100097.70
2022-12-04T13:08:28.829Z,100101.15
2022-12-04T13:11:13.883Z,100102.90
2022-12-04T13:13:48.793Z,100101.49
2022-12-04T13:16:36.512Z,100102.35
2022-12-04T13:19:28.310Z,100097.30
2022-12-04T13:22:23.117Z,100099.54
2022-12-04T13:25:18.240Z,100101.27
2022-12-04T13:28:25.296Z,100097.47
2022-12-04T13:31:13.639Z,100098.31
2022-12-04T13:34:02.237Z,100098.31
2022-12-04T13:36:43.867Z,100092.80
2022-12-04T13:39:16.049Z,100091.26
2022-12-04T13:41:45.523Z,100092.48
2022-12-04T13:44:22.111Z,100095.59
2022-12-04T13:47:25.473Z,100090.42
2022-12-04T13:50:09.298Z,100090.78
2022-12-04T13:52:42.642Z,100086.63
2022-12-04T13:55:34.143Z,100085.40
2022-12-04T13:58:13.224Z,100086.13
2022-12-04T14:00:44.581Z,100090.64
2022-12-04T14:03:35.330Z,100092.73
2022-12-04T14:06:21.676Z,100093.08
2022-12-04T14:08:57.658Z,100098.80
2022-12-04T14:11:29.191Z,100097.41
2022-12-04T14:14:03.615Z,100092.91
2022-12-04T14:16:42.189Z,100092.39
2022-12-04T14:19:29.368Z,100098.10
2022-12-04T14:21:59.659Z,100093.96
2022-12-04T14:24:38.122Z,100093.63
2022-12-04T14:27:37.187Z,100092.27
2022-12-04T14:30:20.160Z,100090.55
2022-12-04T14:32:57.223Z,100084.67
2022-12-04T14:35:30.228Z,100085.05
2022-12-04T14:38:04.648Z,100089.94
2022-12-04T14:40:43.609Z,100091.33
2022-12-04T14:43:23.271Z,100088.90
2022-12-04T14:46:14.925Z,100090.33
2022-12-04T14:49:04.758Z,100092.42
2022-12-04T14:51:38.922Z,100095.19
2022-12-04T14:54:50.227Z,100098.31
2022-12-04T14:57:43.634Z,100100.73
2022-12-04T15:00:22.856Z,100097.45
2022-12-04T15:03:00.146Z,100102.30
2022-12-04T15:05:32.410Z,100099.72
2022-12-04T15:08:06.154Z,100092.63
2022-12-04T15:10:55.521Z,100090.74
2022-12-04T15:13:34.289Z,100089.39
2022-12-04T15:16:20.990Z,100087.84
2022-12-04T15:18:58.517Z,100089.57
2022-12-04T15:21:40.361Z,100093.89
2022-12-04T15:24:10.753Z,100096.83
2022-12-04T15:26:41.991Z,100095.45
2022-12-04T15:29:21.878Z,100096.52
2022-12-04T15:31:57.434Z,100099.65
2022-12-04T15:34:43.250Z,100093.61
2022-12-04T15:37:26.692Z,100092.76
2022-12-04T15:39:58.029Z,100088.61
2022-12-04T15:42:30.735Z,100091.22
2022-12-04T15:45:12.152Z,100092.78
2022-12-04T15:47:42.879Z,100089.52
2022-12-04T15:50:17.982Z,100092.97
2022-12-04T15:52:59.253Z,100088.98
2022-12-04T15:55:33.451Z,100085.86
2022-12-04T15:58:20.649Z,100093.17
2022-12-04T16:00:57.322Z,100091.96
2022-12-04T16:03:45.111Z,100100.27
2022-12-04T16:06:23.779Z,100100.29
2022-12-04T16:08:56.619Z,100102.71
2022-12-04T16:11:36.499Z,100099.77
2022-12-04T16:14:17.464Z,100099.08
2022-12-04T16:16:51.336Z,100101.00
2022-12-04T16:19:33.352Z,100093.71
2022-12-04T16:22:06.303Z,100094.39
2022-12-04T16:24:36.684Z,100093.36
2022-12-04T16:27:20.575Z,100088.34
2022-12-04T16:29:51.231Z,100090.59
2022-12-04T16:32:23.526Z,100084.02
2022-12-04T16:34:55.569Z,100092.86
2022-12-04T16:37:25.539Z,100089.40
2022-12-04T16:39:55.623Z,100088.70
2022-12-04T16:42:30.259Z,100089.58
2022-12-04T16:45:00.980Z,100085.95
2022-12-04T16:47:31.715Z,100083.19
2022-12-04T16:50:01.557Z,100078.84
2022-12-04T16:52:32.103Z,100084.58
2022-12-04T16:55:04.987Z,100086.15
2022-12-04T16:57:35.099Z,100084.77
2022-12-04T17:00:07.315Z,100087.19
2022-12-04T17:02:40.404Z,100094.81
2022-12-04T17:05:20.341Z,100091.88
2022-12-04T17:07:51.459Z,100089.64
2022-12-04T17:10:24.292Z,100082.73
2022-12-04T17:12:55.002Z,100081.89
2022-12-04T17:15:24.580Z,100083.11
2022-12-04T17:17:54.702Z,100082.59
2022-12-04T17:20:24.026Z,100077.23
2022-12-04T17:22:53.325Z,100080.36
2022-12-04T17:25:23.754Z,100086.77
2022-12-04T17:27:53.495Z,100088.51
2022-12-04T17:30:23.844Z,100093.69
2022-12-04T17:32:54.122Z,100093.00
2022-12-04T17:35:24.857Z,100086.59
2022-12-04T17:37:54.599Z,100085.41
2022-12-04T17:40:25.679Z,100079.02
2022-12-04T17:42:56.514Z,100079.36
2022-12-04T17:45:25.895Z,100076.07
2022-12-04T17:47:56.854Z,100076.41
2022-12-04T17:50:27.184Z,100072.11
2022-12-04T17:52:57.121Z,100071.92
2022-12-04T17:55:27.709Z,100074.18
2022-12-04T17:57:57.754Z,100072.80
2022-12-04T18:00:28.074Z,100075.55
2022-12-04T18:02:58.640Z,100073.48
2022-12-04T18:05:29.828Z,100070.89
2022-12-04T18:08:01.064Z,100068.10
2022-12-04T18:10:30.451Z,100067.92
2022-12-04T18:13:00.157Z,100067.75
2022-12-04T18:15:30.142Z,100069.83
2022-12-04T18:17:59.771Z,100071.55
2022-12-04T18:20:29.307Z,100070.52
2022-12-04T18:23:00.140Z,100070.01
2022-12-04T18:25:29.501Z,100077.96
2022-12-04T18:27:59.464Z,100076.42
2022-12-04T18:30:30.644Z,100080.58
2022-12-04T18:33:01.577Z,100076.27
2022-12-04T18:35:31.149Z,100073.66
2022-12-04T18:38:00.659Z,100074.54
2022-12-04T18:40:32.336Z,100074.71
2022-12-04T18:43:02.680Z,100070.73
2022-12-04T18:45:33.204Z,100070.58
2022-12-04T18:48:05.117Z,100071.60
2022-12-04T18:50:37.023Z,100070.21
2022-12-04T18:53:07.376Z,100076.79
2022-12-04T18:55:38.290Z,100076.92
2022-12-04T18:58:09.355Z,100079.36
2022-12-04T19:00:40.142Z,100081.09
2022-12-04T19:03:12.535Z,100083.34
2022-12-04T19:05:50.916Z,100080.23
2022-12-04T19:08:21.767Z,100077.30
2022-12-04T19:10:51.549Z,100084.75
2022-12-04T19:13:22.690Z,100083.88
2022-12-04T19:15:52.151Z,100086.83
2022-12-04T19:18:22.391Z,100085.61
2022-12-04T19:20:53.233Z,100088.05
2022-12-04T19:23:23.516Z,100088.21
2022-12-04T19:25:58.782Z,100084.05
2022-12-04T19:28:29.307Z,100084.92
2022-12-04T19:30:59.059Z,100086.65
2022-12-04T19:33:30.139Z,100088.73
2022-12-04T19:36:06.655Z,100087.86
2022-12-04T19:38:36.896Z,100087.34
2022-12-04T19:41:21.391Z,100087.68
2022-12-04T19:43:53.604Z,100087.16
2022-12-04T19:46:27.281Z,100084.91
2022-12-04T19:49:02.786Z,100088.38
2022-12-04T19:51:34.236Z,100086.29
2022-12-04T19:54:09.031Z,100088.53
2022-12-04T19:56:47.335Z,100086.10
2022-12-04T19:59:19.603Z,100084.04
2022-12-04T20:01:49.242Z,100077.46
2022-12-04T20:04:21.441Z,100077.11
2022-12-04T20:06:53.561Z,100077.27
2022-12-04T20:09:25.837Z,100082.30
2022-12-04T20:11:55.457Z,100084.89
2022-12-04T20:14:25.515Z,100086.80
2022-12-04T20:16:55.776Z,100086.30
2022-12-04T20:19:26.185Z,100084.91
2022-12-04T20:21:59.272Z,100089.23
2022-12-04T20:24:30.873Z,100085.27
2022-12-04T20:27:01.650Z,100084.58
2022-12-04T20:29:31.943Z,100082.33
2022-12-04T20:32:03.038Z,100076.95
2022-12-04T20:34:31.896Z,100073.15
2022-12-04T20:37:01.190Z,100064.33
2022-12-04T20:39:30.354Z,100062.61
2022-12-04T20:42:02.140Z,100063.14
2022-12-04T20:44:32.391Z,100065.40
2022-12-04T20:47:03.066Z,100074.90
2022-12-04T20:49:33.038Z,100068.17
2022-12-04T20:52:02.437Z,100065.91
2022-12-04T20:54:34.347Z,100064.38
2022-12-04T20:57:07.870Z,100064.20
2022-12-04T20:59:37.504Z,100060.40
2022-12-04T21:02:07.329Z,100054.17
2022-12-04T21:04:39.382Z,100053.30
2022-12-04T21:07:10.952Z,100051.92
2022-12-04T21:09:40.505Z,100053.33
2022-12-04T21:12:31.769Z,100049.16
2022-12-04T21:15:34.394Z,100054.19
2022-12-04T21:18:05.159Z,100053.15
2022-12-04T21:20:35.561Z,100051.44
2022-12-04T21:23:05.109Z,100053.35
2022-12-04T21:25:36.688Z,100055.08
2022-12-04T21:28:06.255Z,100058.02
2022-12-04T21:30:37.817Z,100061.84
2022-12-04T21:33:07.512Z,100063.23
2022-12-04T21:35:41.070Z,100058.39
2022-12-04T21:38:11.625Z,100055.45
2022-12-04T21:40:42.692Z,100054.42
2022-12-04T21:43:13.949Z,100056.67
2022-12-04T21:45:46.725Z,100058.23
2022-12-04T21:48:16.269Z,100052.86
2022-12-04T21:50:46.773Z,100055.65
2022-12-04T21:53:16.931Z,100051.69
2022-12-04T21:55:51.809Z,100046.84
2022-12-04T21:58:23.142Z,100051.52
2022-12-04T22:00:55.402Z,100052.76
2022-12-04T22:03:29.877Z,100048.59
2022-12-04T22:06:01.427Z,100042.72
2022-12-04T22:08:31.959Z,100042.20
2022-12-04T22:11:05.304Z,100038.08
2022-12-04T22:13:39.076Z,100038.44
2022-12-04T22:16:15.518Z,100039.48
2022-12-04T22:18:46.363Z,100037.06
2022-12-04T22:21:18.033Z,100034.64
2022-12-04T22:23:47.325Z,100031.19
2022-12-04T22:26:19.733Z,100027.20
2022-12-04T22:28:48.953Z,100028.43
2022-12-04T22:31:21.354Z,100029.65
2022-12-04T22:33:54.544Z,100032.07
2022-12-04T22:36:27.975Z,100030.01
2022-12-04T22:39:09.236Z,100032.61
2022-12-04T22:41:40.139Z,100035.54
2022-12-04T22:44:10.055Z,100044.70
2022-12-04T22:46:39.424Z,100045.40
2022-12-04T22:49:08.296Z,100049.89
2022-12-04T22:51:37.391Z,100050.59
2022-12-04T22:54:08.299Z,100057.67
2022-12-04T22:56:38.068Z,100043.65
2022-12-04T22:59:07.299Z,100038.48
2022-12-04T23:01:37.027Z,100033.30
2022-12-04T23:04:06.416Z,100031.59
2022-12-04T23:06:35.649Z,100032.28
2022-12-04T23:09:13.036Z,100036.26
2022-12-04T23:11:43.535Z,100038.66
2022-12-04T23:14:16.373Z,100037.98
2022-12-04T23:16:45.314Z,100031.92
2022-12-04T23:19:17.387Z,100036.42
2022-12-04T23:21:50.773Z,100035.74
2022-12-04T23:24:26.299Z,100030.21
2022-12-04T23:26:54.583Z,100034.02
2022-12-04T23:29:51.616Z,100032.99
2022-12-04T23:32:12.157Z,100034.90
2022-12-04T23:34:40.796Z,100039.56
2022-12-04T23:37:10.156Z,100045.11
2022-12-04T23:39:38.667Z,100049.59
2022-12-04T23:42:07.506Z,100039.05
2022-12-04T23:44:36.128Z,100034.55
2022-12-04T23:47:05.017Z,100034.54
2022-12-04T23:49:33.500Z,100027.63
2022-12-04T23:52:02.172Z,100027.11
2022-12-04T23:54:35.408Z,100027.98
2022-12-04T23:57:04.071Z,100032.48
2022-12-04T23:59:32.983Z,100025.25
